Аэропорт: Бухта Провидения. Провидения

ICAO: UHMD

METAR:
2024-04-22 22:00:00
UHMD 222200Z 36008MPS CAVOK M07/M12 Q1012 RMK QFE759/1012
TAF:
Информация по данной станции не доступна